Time;durP1;ratioP1;P1;durP2;ratioP2;P2;SDS_P1;SDS_P2;PMS_P1;PMS_P2;Temp;Humidity;BMP_temperature;BMP_pressure;BME280_temperature;BME280_humidity;BME280_pressure;Samples;Min_cycle;Max_cycle;Signal;HPM_P1;HPM_P2
2021/03/04 00:00:15;;;;;;;169.15;70.03;;;10.50;99.90;;;;;;5092953;28;20606;-76
2021/03/04 00:02:41;;;;;;;176.63;74.53;;;10.50;99.90;;;;;;5076846;28;20178;-76
2021/03/04 00:05:09;;;;;;;165.95;71.40;;;10.50;99.90;;;;;;5083694;28;20181;-75
2021/03/04 00:07:35;;;;;;;172.10;71.00;;;10.50;99.90;;;;;;5094529;28;20201;-75
2021/03/04 00:10:04;;;;;;;160.38;68.60;;;10.50;99.90;;;;;;5077979;28;20170;-75
2021/03/04 00:12:30;;;;;;;179.23;72.25;;;10.40;99.90;;;;;;5097098;28;20161;-75
2021/03/04 00:14:55;;;;;;;171.77;73.22;;;10.40;99.90;;;;;;5087251;28;20198;-75
2021/03/04 00:17:21;;;;;;;157.82;66.80;;;10.50;99.90;;;;;;5076285;28;20615;-77
2021/03/04 00:19:47;;;;;;;169.98;71.97;;;10.70;99.90;;;;;;5077393;28;20633;-75
2021/03/04 00:22:12;;;;;;;157.23;70.43;;;10.60;99.90;;;;;;5096869;28;20177;-74
2021/03/04 00:24:38;;;;;;;178.45;74.18;;;10.70;99.90;;;;;;5068844;28;20208;-75
2021/03/04 00:27:04;;;;;;;180.27;70.93;;;10.80;99.90;;;;;;5078574;28;20170;-76
2021/03/04 00:29:31;;;;;;;173.13;70.35;;;10.80;99.90;;;;;;5086803;28;20231;-75
2021/03/04 00:31:56;;;;;;;183.57;70.10;;;10.70;99.90;;;;;;5088813;28;20185;-75
2021/03/04 00:34:22;;;;;;;199.30;72.85;;;10.60;99.90;;;;;;5076099;28;20278;-75
2021/03/04 00:36:48;;;;;;;186.05;72.93;;;10.60;99.90;;;;;;5076106;28;20170;-75
2021/03/04 00:39:13;;;;;;;204.23;76.10;;;10.50;99.90;;;;;;5057381;28;20175;-75
2021/03/04 00:41:39;;;;;;;192.40;74.75;;;10.30;99.90;;;;;;5062535;28;20178;-76
2021/03/04 00:44:06;;;;;;;203.80;75.97;;;10.30;99.90;;;;;;5094597;28;20178;-76
2021/03/04 00:46:33;;;;;;;201.43;76.80;;;10.10;99.90;;;;;;5057791;28;20166;-75
2021/03/04 00:49:00;;;;;;;190.80;74.80;;;9.80;99.90;;;;;;5087808;28;20205;-75
2021/03/04 00:51:25;;;;;;;194.55;75.82;;;9.90;99.90;;;;;;5090503;28;20224;-75
2021/03/04 00:53:51;;;;;;;213.68;80.43;;;10.00;99.90;;;;;;5095882;28;20194;-75
2021/03/04 00:56:17;;;;;;;203.25;74.47;;;10.10;99.90;;;;;;5076453;28;20175;-76
2021/03/04 00:58:42;;;;;;;189.02;73.18;;;10.10;99.90;;;;;;5094314;28;20269;-76
2021/03/04 01:01:08;;;;;;;203.13;78.00;;;10.20;99.90;;;;;;5072461;28;20181;-74
2021/03/04 01:03:34;;;;;;;194.18;76.00;;;10.20;99.90;;;;;;5077426;28;20258;-75
2021/03/04 01:05:59;;;;;;;200.13;75.10;;;10.30;99.90;;;;;;5090039;28;20198;-75
2021/03/04 01:08:25;;;;;;;197.18;76.78;;;10.40;99.90;;;;;;5085494;28;20183;-75
2021/03/04 01:10:51;;;;;;;195.48;73.95;;;10.50;99.90;;;;;;5079138;28;20494;-75
2021/03/04 01:13:17;;;;;;;190.45;72.82;;;10.50;99.90;;;;;;5087574;28;20166;-76
2021/03/04 01:15:43;;;;;;;189.02;73.60;;;10.50;99.90;;;;;;5086698;28;20162;-75
2021/03/04 01:18:10;;;;;;;175.93;70.22;;;10.40;99.90;;;;;;5089902;28;20636;-76
2021/03/04 01:20:36;;;;;;;185.48;73.82;;;10.40;99.90;;;;;;5095714;28;20177;-75
2021/03/04 01:23:02;;;;;;;172.25;70.00;;;10.40;99.90;;;;;;5081559;28;20175;-75
2021/03/04 01:25:28;;;;;;;160.95;69.97;;;10.40;99.90;;;;;;5085159;28;20204;-75
2021/03/04 01:27:53;;;;;;;165.40;69.15;;;10.40;99.90;;;;;;5079894;28;20202;-75
2021/03/04 01:30:27;;;;;;;167.32;67.43;;;10.40;99.90;;;;;;5080567;28;20192;-76
2021/03/04 01:32:52;;;;;;;146.48;62.13;;;10.40;99.90;;;;;;5077488;28;20190;-75
2021/03/04 01:35:18;;;;;;;130.68;60.33;;;10.30;99.90;;;;;;5094308;28;20239;-76
2021/03/04 01:37:43;;;;;;;128.90;58.28;;;10.10;99.90;;;;;;5072336;28;20217;-75
2021/03/04 01:40:12;;;;;;;125.28;57.67;;;10.10;99.90;;;;;;5082545;28;20256;-75
2021/03/04 01:42:38;;;;;;;124.82;56.42;;;10.20;99.90;;;;;;5095112;28;20154;-75
2021/03/04 01:45:04;;;;;;;127.40;57.88;;;10.30;99.90;;;;;;5093962;28;20646;-75
2021/03/04 01:47:30;;;;;;;121.57;57.22;;;10.40;99.90;;;;;;5095242;28;20169;-76
2021/03/04 01:49:56;;;;;;;133.27;57.75;;;10.40;99.90;;;;;;5094015;28;20178;-75
2021/03/04 01:52:22;;;;;;;126.20;58.25;;;10.30;99.90;;;;;;5077007;28;20214;-74
2021/03/04 01:54:48;;;;;;;117.85;55.78;;;9.70;99.90;;;;;;5076258;28;20202;-74
2021/03/04 01:57:16;;;;;;;125.13;58.80;;;9.50;99.90;;;;;;5081920;28;20174;-75
2021/03/04 01:59:42;;;;;;;133.95;58.08;;;9.50;99.90;;;;;;5093209;28;20174;-75
2021/03/04 02:02:08;;;;;;;128.07;56.20;;;9.70;99.90;;;;;;5077520;28;20182;-75
2021/03/04 02:04:33;;;;;;;119.10;57.92;;;9.70;99.90;;;;;;5075711;28;20179;-75
2021/03/04 02:07:27;;;;;;;110.13;54.38;;;9.70;99.90;;;;;;5094704;28;20161;-76
2021/03/04 02:10:01;;;;;;;96.28;48.67;;;9.80;99.90;;;;;;5094583;28;20177;-75
2021/03/04 02:12:37;;;;;;;88.10;46.75;;;9.50;99.90;;;;;;5093401;28;20173;-75
2021/03/04 02:15:07;;;;;;;90.05;47.47;;;9.60;99.90;;;;;;5068219;28;20209;-75
2021/03/04 02:17:38;;;;;;;88.55;46.35;;;9.70;99.90;;;;;;5076494;28;20154;-75
2021/03/04 02:20:13;;;;;;;89.28;46.40;;;9.70;99.90;;;;;;5068430;28;20174;-75
2021/03/04 02:23:00;;;;;;;95.90;48.33;;;9.80;99.90;;;;;;5086524;28;20174;-75
2021/03/04 02:25:52;;;;;;;87.45;47.10;;;9.80;99.90;;;;;;5094262;28;20519;-75
2021/03/04 02:28:19;;;;;;;89.82;47.72;;;9.80;99.90;;;;;;5081352;28;20206;-75
2021/03/04 02:30:47;;;;;;;86.88;44.38;;;9.70;99.90;;;;;;5085741;28;20264;-75
2021/03/04 02:33:25;;;;;;;86.57;45.70;;;9.80;99.90;;;;;;5064274;28;20175;-75
2021/03/04 02:35:53;;;;;;;79.22;42.35;;;9.80;99.90;;;;;;5077065;28;20694;-75
2021/03/04 02:38:20;;;;;;;86.70;43.53;;;9.80;99.90;;;;;;5067834;28;20235;-75
2021/03/04 02:40:47;;;;;;;93.40;46.72;;;9.90;99.90;;;;;;5073706;28;20166;-76
2021/03/04 02:43:18;;;;;;;85.68;46.20;;;9.90;99.90;;;;;;5075734;28;20606;-75
2021/03/04 02:45:44;;;;;;;84.15;45.10;;;9.90;99.90;;;;;;5080919;28;20166;-76
2021/03/04 02:48:16;;;;;;;91.93;44.75;;;9.90;99.90;;;;;;5090556;28;20174;-76
2021/03/04 02:50:43;;;;;;;88.30;45.22;;;9.90;99.90;;;;;;5092925;28;20170;-75
2021/03/04 02:53:10;;;;;;;89.65;47.53;;;10.00;99.90;;;;;;5055547;28;20246;-76
2021/03/04 02:55:38;;;;;;;93.53;49.28;;;10.10;99.90;;;;;;5083489;28;20262;-75
2021/03/04 02:58:09;;;;;;;107.05;47.08;;;10.20;99.90;;;;;;5075956;28;20163;-75
2021/03/04 03:00:36;;;;;;;101.07;48.45;;;10.30;99.90;;;;;;5091226;28;20188;-75
2021/03/04 03:03:09;;;;;;;101.60;51.53;;;10.40;99.90;;;;;;5089774;28;20223;-75
2021/03/04 03:05:39;;;;;;;113.90;53.50;;;10.40;99.90;;;;;;5091264;28;20182;-75
2021/03/04 03:08:06;;;;;;;107.95;52.50;;;10.40;99.90;;;;;;5077907;28;20216;-75
2021/03/04 03:10:34;;;;;;;108.63;52.28;;;10.50;99.90;;;;;;5084147;28;20170;-77
2021/03/04 03:13:01;;;;;;;102.47;50.92;;;10.40;99.90;;;;;;5060595;28;20177;-75
2021/03/04 03:15:27;;;;;;;107.13;51.55;;;10.50;99.90;;;;;;5087230;28;20323;-75
2021/03/04 03:17:54;;;;;;;97.65;49.75;;;10.40;99.90;;;;;;5091999;28;20163;-75
2021/03/04 03:20:24;;;;;;;102.18;49.97;;;10.40;99.90;;;;;;5071988;28;20202;-75
2021/03/04 03:22:51;;;;;;;106.32;50.60;;;10.40;99.90;;;;;;5072620;28;20191;-75
2021/03/04 03:25:17;;;;;;;101.30;49.65;;;10.30;99.90;;;;;;5055433;28;20201;-75
2021/03/04 03:27:44;;;;;;;99.95;51.00;;;10.30;99.90;;;;;;5058003;28;20202;-75
2021/03/04 03:30:19;;;;;;;113.90;53.92;;;10.30;99.90;;;;;;5060843;28;20190;-75
2021/03/04 03:33:07;;;;;;;128.35;55.15;;;10.20;99.90;;;;;;5073849;28;20555;-76
2021/03/04 03:35:33;;;;;;;125.47;56.05;;;10.10;99.90;;;;;;5054536;28;20208;-76
2021/03/04 03:38:01;;;;;;;134.75;57.50;;;10.20;99.90;;;;;;5086968;28;20239;-75
2021/03/04 03:40:28;;;;;;;124.63;56.58;;;10.20;99.90;;;;;;5090919;28;20201;-75
2021/03/04 03:42:56;;;;;;;132.95;57.63;;;10.20;99.90;;;;;;5093262;28;20168;-75
2021/03/04 03:45:29;;;;;;;145.05;61.40;;;10.10;99.90;;;;;;5074041;28;20625;-75
2021/03/04 03:47:56;;;;;;;140.43;63.50;;;10.00;99.90;;;;;;5093135;28;20204;-75
2021/03/04 03:50:23;;;;;;;145.05;62.50;;;10.00;99.90;;;;;;5066112;28;20224;-75
2021/03/04 03:52:50;;;;;;;165.07;64.05;;;10.00;99.90;;;;;;5072894;28;20186;-75
2021/03/04 03:55:16;;;;;;;151.48;62.67;;;10.00;99.90;;;;;;5072673;28;20540;-75
2021/03/04 03:57:44;;;;;;;156.90;64.72;;;10.00;99.90;;;;;;5071625;28;20550;-75
2021/03/04 04:00:13;;;;;;;147.13;61.30;;;10.00;99.90;;;;;;5078996;28;20253;-75
2021/03/04 04:02:39;;;;;;;147.02;60.60;;;9.90;99.90;;;;;;5113139;28;20185;-75
2021/03/04 04:05:06;;;;;;;150.75;63.42;;;9.90;99.90;;;;;;5099713;28;20268;-75
2021/03/04 04:07:32;;;;;;;154.18;64.80;;;9.80;99.90;;;;;;5093013;28;20173;-75
2021/03/04 04:09:59;;;;;;;144.63;64.30;;;9.90;99.90;;;;;;5084885;28;20212;-76
2021/03/04 04:12:25;;;;;;;153.80;63.38;;;9.90;99.90;;;;;;5072788;28;20680;-75
2021/03/04 04:14:51;;;;;;;169.02;65.45;;;9.90;99.90;;;;;;5072439;28;20222;-75
2021/03/04 04:17:18;;;;;;;147.43;61.22;;;9.80;99.90;;;;;;5092932;28;20628;-75
2021/03/04 04:19:44;;;;;;;137.07;58.90;;;9.70;99.90;;;;;;5071018;28;20174;-75
2021/03/04 04:22:11;;;;;;;138.77;60.72;;;9.50;99.90;;;;;;5069965;28;20502;-76
2021/03/04 04:24:37;;;;;;;143.00;60.50;;;9.40;99.90;;;;;;5055295;28;20206;-76
2021/03/04 04:27:04;;;;;;;144.15;58.97;;;9.50;99.90;;;;;;5073223;28;20169;-75
2021/03/04 04:29:29;;;;;;;159.05;60.45;;;9.40;99.90;;;;;;5087227;28;20716;-75
2021/03/04 04:31:56;;;;;;;132.85;57.28;;;9.40;99.90;;;;;;5089595;28;20202;-75
2021/03/04 04:34:21;;;;;;;149.00;61.53;;;9.40;99.90;;;;;;5075330;28;20556;-75
2021/03/04 04:36:47;;;;;;;154.60;60.30;;;9.50;99.90;;;;;;5079974;28;20158;-75
2021/03/04 04:39:13;;;;;;;155.27;58.95;;;9.50;99.90;;;;;;5095477;28;20170;-75
2021/03/04 04:41:39;;;;;;;145.77;60.67;;;9.30;99.90;;;;;;5080956;28;20175;-75
2021/03/04 04:44:05;;;;;;;147.13;60.58;;;9.10;99.90;;;;;;5084582;28;20656;-75
2021/03/04 04:46:30;;;;;;;163.57;63.50;;;9.20;99.90;;;;;;5078370;28;20219;-75
2021/03/04 04:48:56;;;;;;;150.93;61.30;;;9.30;99.90;;;;;;5094774;28;20197;-74
2021/03/04 04:51:22;;;;;;;156.43;61.15;;;9.30;99.90;;;;;;5094977;28;20648;-75
2021/03/04 04:53:47;;;;;;;130.27;57.97;;;9.30;99.90;;;;;;5061654;28;20207;-76
2021/03/04 04:56:13;;;;;;;146.38;58.88;;;9.40;99.90;;;;;;5096101;28;20162;-76
2021/03/04 04:58:39;;;;;;;155.40;62.08;;;9.40;99.90;;;;;;5094542;28;20181;-75
2021/03/04 05:01:04;;;;;;;134.30;58.03;;;9.40;99.90;;;;;;5081801;28;20238;-75
2021/03/04 05:03:30;;;;;;;143.52;58.38;;;9.40;99.90;;;;;;5096079;28;20186;-75
2021/03/04 05:05:56;;;;;;;145.10;58.88;;;9.20;99.90;;;;;;5062067;28;20510;-75
2021/03/04 05:08:21;;;;;;;159.68;59.47;;;9.20;99.90;;;;;;5091848;28;20185;-75
2021/03/04 05:10:47;;;;;;;158.60;59.08;;;9.10;99.90;;;;;;5095117;28;20170;-75
2021/03/04 05:13:13;;;;;;;179.73;61.55;;;9.10;99.90;;;;;;5095525;28;20265;-75
2021/03/04 05:15:39;;;;;;;162.75;60.78;;;9.10;99.90;;;;;;5095256;28;20189;-75
2021/03/04 05:18:05;;;;;;;183.18;62.70;;;9.10;99.90;;;;;;5077777;28;20178;-74
2021/03/04 05:20:31;;;;;;;156.75;59.03;;;8.80;99.90;;;;;;5085538;28;20178;-75
2021/03/04 05:22:57;;;;;;;149.63;59.05;;;8.80;99.90;;;;;;5075375;28;20171;-75
2021/03/04 05:25:23;;;;;;;141.75;60.50;;;8.80;99.90;;;;;;5082938;28;20192;-75
2021/03/04 05:27:48;;;;;;;188.05;60.80;;;8.50;99.90;;;;;;5076933;28;20166;-76
2021/03/04 05:30:15;;;;;;;181.80;61.40;;;8.50;99.90;;;;;;5084456;28;20666;-75
2021/03/04 05:32:40;;;;;;;223.88;66.90;;;8.60;99.90;;;;;;5068337;28;20257;-75
2021/03/04 05:35:07;;;;;;;177.15;62.75;;;8.60;99.90;;;;;;5095375;28;20238;-75
2021/03/04 05:37:32;;;;;;;204.18;68.10;;;8.70;99.90;;;;;;5090059;28;20171;-75
2021/03/04 05:39:58;;;;;;;267.40;69.80;;;8.80;99.90;;;;;;5094078;28;20181;-75
2021/03/04 05:42:24;;;;;;;221.80;69.65;;;8.90;99.90;;;;;;5066269;28;20189;-75
2021/03/04 05:44:50;;;;;;;212.57;67.90;;;9.10;99.90;;;;;;5079952;28;20200;-76
2021/03/04 05:47:18;;;;;;;177.88;64.28;;;9.00;99.90;;;;;;5090931;28;20175;-75
2021/03/04 05:50:05;;;;;;;211.32;66.80;;;8.70;99.90;;;;;;5056709;28;20198;-76
2021/03/04 05:52:35;;;;;;;189.02;64.38;;;8.60;99.90;;;;;;5094251;28;20162;-75
2021/03/04 05:55:03;;;;;;;190.07;65.40;;;8.60;99.90;;;;;;5083458;28;20519;-76
2021/03/04 05:57:30;;;;;;;190.00;63.33;;;8.60;99.90;;;;;;5075075;28;20201;-75
2021/03/04 05:59:56;;;;;;;204.80;64.18;;;8.70;99.90;;;;;;5073934;28;20190;-76
2021/03/04 06:02:22;;;;;;;190.73;64.43;;;8.80;99.90;;;;;;5091958;28;20181;-75
2021/03/04 06:04:48;;;;;;;177.80;61.78;;;8.80;99.90;;;;;;5087236;28;20534;-75
2021/03/04 06:07:14;;;;;;;180.77;61.15;;;8.70;99.90;;;;;;5080693;28;20181;-75
2021/03/04 06:09:40;;;;;;;175.38;62.88;;;8.60;99.90;;;;;;5087897;28;20171;-75
2021/03/04 06:12:07;;;;;;;204.75;63.63;;;8.60;99.90;;;;;;5074558;28;20159;-75
2021/03/04 06:14:34;;;;;;;207.48;61.95;;;8.60;99.90;;;;;;5074095;28;20198;-75
2021/03/04 06:17:15;;;;;;;180.60;63.55;;;8.50;99.90;;;;;;5081125;28;20169;-75
2021/03/04 06:19:50;;;;;;;196.77;65.43;;;8.60;99.90;;;;;;5073774;28;20235;-74
2021/03/04 06:22:22;;;;;;;202.35;62.90;;;8.70;99.90;;;;;;5073976;28;20166;-76
2021/03/04 06:24:52;;;;;;;216.38;67.97;;;9.00;99.90;;;;;;5094362;28;20212;-74
2021/03/04 06:27:30;;;;;;;231.10;71.35;;;9.10;99.90;;;;;;5093104;28;20158;-74
2021/03/04 06:30:01;;;;;;;224.52;69.53;;;9.30;99.90;;;;;;5084899;28;20269;-75
2021/03/04 06:32:27;;;;;;;218.48;69.95;;;9.40;99.90;;;;;;5081436;28;20174;-76
2021/03/04 06:35:08;;;;;;;204.43;66.13;;;9.40;99.90;;;;;;5094060;28;20606;-75
2021/03/04 06:37:42;;;;;;;218.00;64.90;;;9.30;99.90;;;;;;5074356;28;20207;-75
2021/03/04 06:40:24;;;;;;;199.57;63.55;;;9.10;99.90;;;;;;5056174;28;20232;-74
2021/03/04 06:42:50;;;;;;;294.08;65.45;;;9.00;99.90;;;;;;5090049;28;20613;-75
2021/03/04 06:45:27;;;;;;;265.77;67.40;;;8.90;99.90;;;;;;5066462;28;20645;-77
2021/03/04 06:48:05;;;;;;;229.70;68.38;;;8.90;99.90;;;;;;5072863;28;20227;-77
2021/03/04 06:50:30;;;;;;;214.27;64.95;;;9.10;99.90;;;;;;5085155;28;20180;-77
2021/03/04 06:52:56;;;;;;;195.32;63.75;;;8.90;99.90;;;;;;5093792;28;20518;-77
2021/03/04 06:55:22;;;;;;;186.20;61.70;;;8.70;99.90;;;;;;5082672;28;20205;-76
2021/03/04 06:57:58;;;;;;;177.95;59.03;;;8.70;99.90;;;;;;5059206;28;20182;-76
2021/03/04 07:00:24;;;;;;;177.68;57.70;;;8.70;99.90;;;;;;5090412;28;20177;-76
2021/03/04 07:02:52;;;;;;;164.55;55.17;;;8.80;99.90;;;;;;5093952;28;20158;-76
2021/03/04 07:05:17;;;;;;;130.30;48.53;;;8.80;99.90;;;;;;5073371;28;20182;-76
2021/03/04 07:07:48;;;;;;;139.63;48.38;;;8.70;99.90;;;;;;5075706;28;20201;-76
2021/03/04 07:10:14;;;;;;;95.22;37.63;;;8.70;99.90;;;;;;5065478;28;20665;-76
2021/03/04 07:12:43;;;;;;;67.13;30.73;;;8.60;99.90;;;;;;5091121;28;20201;-78
2021/03/04 07:15:10;;;;;;;63.08;29.88;;;8.30;99.90;;;;;;5092915;28;20217;-78
2021/03/04 07:17:36;;;;;;;57.45;26.17;;;8.50;99.90;;;;;;5087577;28;20181;-76
2021/03/04 07:20:04;;;;;;;50.70;25.73;;;8.60;99.90;;;;;;5107111;28;20166;-78
2021/03/04 07:22:32;;;;;;;52.92;25.23;;;8.70;99.90;;;;;;5090993;28;20186;-76
2021/03/04 07:24:58;;;;;;;64.65;29.08;;;8.80;99.90;;;;;;5058938;28;20170;-76
2021/03/04 07:27:25;;;;;;;71.07;32.63;;;8.90;99.90;;;;;;5091913;28;20253;-76
2021/03/04 07:29:51;;;;;;;79.22;33.35;;;9.00;99.90;;;;;;5091739;28;20181;-76
2021/03/04 07:32:18;;;;;;;69.03;30.73;;;9.00;99.90;;;;;;5092217;28;20174;-76
2021/03/04 07:34:45;;;;;;;75.75;31.83;;;9.00;99.90;;;;;;5075351;28;20193;-76
2021/03/04 07:37:17;;;;;;;70.22;31.70;;;9.10;99.90;;;;;;5074453;28;20187;-76
2021/03/04 07:39:42;;;;;;;64.80;29.48;;;9.10;99.90;;;;;;5070218;28;20179;-76
2021/03/04 07:42:22;;;;;;;55.47;27.40;;;9.10;99.90;;;;;;5073241;28;20189;-76
2021/03/04 07:44:47;;;;;;;52.92;26.42;;;9.00;99.90;;;;;;5079589;28;20184;-77
2021/03/04 07:47:14;;;;;;;65.85;28.15;;;9.00;99.90;;;;;;5092489;28;20170;-76
2021/03/04 07:49:41;;;;;;;62.72;27.92;;;9.00;99.90;;;;;;5054260;28;20175;-76
2021/03/04 07:52:14;;;;;;;70.28;28.63;;;9.00;99.90;;;;;;5072972;28;20163;-76
2021/03/04 07:54:44;;;;;;;70.32;29.42;;;8.90;99.90;;;;;;5078524;28;20243;-76
2021/03/04 07:57:11;;;;;;;65.75;27.98;;;8.80;99.90;;;;;;5092455;28;20173;-76
2021/03/04 07:59:53;;;;;;;66.30;29.58;;;8.50;99.90;;;;;;5082346;28;20202;-77
2021/03/04 08:02:27;;;;;;;68.30;29.35;;;8.50;99.90;;;;;;5055702;28;20645;-76
2021/03/04 08:05:16;;;;;;;71.60;30.55;;;8.70;99.90;;;;;;5044028;28;20166;-78
2021/03/04 08:07:51;;;;;;;70.30;29.67;;;8.80;99.90;;;;;;5076845;28;20623;-76
2021/03/04 08:10:22;;;;;;;76.13;31.17;;;8.90;99.90;;;;;;5078000;28;20192;-76
2021/03/04 08:12:51;;;;;;;78.30;32.55;;;8.90;99.90;;;;;;5078882;28;20242;-76
2021/03/04 08:15:29;;;;;;;67.85;29.83;;;8.90;99.90;;;;;;5095557;28;20220;-80
2021/03/04 08:17:55;;;;;;;69.00;29.15;;;8.90;99.90;;;;;;5076706;28;20209;-76
2021/03/04 08:20:21;;;;;;;69.20;27.70;;;8.80;99.90;;;;;;5089086;28;20166;-76
2021/03/04 08:22:51;;;;;;;60.95;27.95;;;8.80;99.90;;;;;;5094478;28;20177;-76
2021/03/04 08:25:29;;;;;;;63.45;28.00;;;8.60;99.90;;;;;;5096992;28;20166;-77
2021/03/04 08:27:56;;;;;;;62.67;27.10;;;8.60;99.90;;;;;;5095275;28;20173;-75
2021/03/04 08:30:28;;;;;;;64.78;27.98;;;8.70;99.90;;;;;;5088222;28;20278;-76
2021/03/04 08:32:55;;;;;;;60.58;26.05;;;8.90;99.90;;;;;;5096414;28;20172;-77
2021/03/04 08:35:22;;;;;;;51.72;25.52;;;8.90;99.90;;;;;;5090422;28;20193;-76
2021/03/04 08:37:59;;;;;;;52.63;23.88;;;8.90;99.90;;;;;;5088380;28;20174;-76
2021/03/04 08:40:25;;;;;;;53.80;24.25;;;8.90;99.90;;;;;;5096632;28;20242;-76
2021/03/04 08:42:51;;;;;;;47.08;22.30;;;8.90;99.90;;;;;;5078244;28;20533;-76
2021/03/04 08:45:30;;;;;;;51.40;23.27;;;9.00;99.90;;;;;;5096346;28;20166;-76
2021/03/04 08:47:55;;;;;;;49.42;23.30;;;9.10;99.90;;;;;;5085563;28;20202;-76
2021/03/04 08:50:42;;;;;;;45.45;21.75;;;9.20;99.90;;;;;;5076445;28;20305;-76
2021/03/04 08:53:13;;;;;;;42.70;21.45;;;9.30;99.90;;;;;;5076091;28;20227;-77
2021/03/04 08:55:47;;;;;;;40.38;21.08;;;9.40;99.90;;;;;;5079356;28;20208;-76
2021/03/04 08:58:13;;;;;;;41.55;21.25;;;9.40;99.90;;;;;;5072760;28;20182;-77
2021/03/04 09:00:39;;;;;;;56.38;23.60;;;9.40;99.90;;;;;;5094966;28;20166;-76
2021/03/04 09:03:11;;;;;;;54.25;23.60;;;9.50;99.90;;;;;;5096274;28;20166;-76
2021/03/04 09:05:38;;;;;;;56.00;24.58;;;9.30;99.90;;;;;;5095668;28;20227;-76
2021/03/04 09:08:08;;;;;;;53.10;23.60;;;9.10;99.90;;;;;;5077941;28;20530;-76
2021/03/04 09:10:51;;;;;;;53.38;23.35;;;9.00;99.90;;;;;;5076851;28;20527;-77
2021/03/04 09:13:24;;;;;;;47.38;22.05;;;9.10;99.90;;;;;;5077472;28;20219;-76
2021/03/04 09:16:03;;;;;;;63.38;24.73;;;9.10;99.90;;;;;;5095722;28;20546;-78
2021/03/04 09:18:30;;;;;;;68.82;31.70;;;9.10;99.90;;;;;;5094549;28;20420;-76
2021/03/04 09:20:57;;;;;;;63.75;27.23;;;9.10;99.90;;;;;;5095291;28;20181;-76
2021/03/04 09:23:23;;;;;;;65.32;27.08;;;9.20;99.90;;;;;;5082501;28;20177;-76
2021/03/04 09:25:58;;;;;;;68.03;27.73;;;9.30;99.90;;;;;;5094498;28;20178;-76
2021/03/04 09:28:24;;;;;;;65.00;24.40;;;9.30;99.90;;;;;;5095374;28;20196;-75
2021/03/04 09:30:50;;;;;;;66.88;26.83;;;9.20;99.90;;;;;;5072899;28;20257;-76
2021/03/04 09:33:26;;;;;;;60.20;24.80;;;9.20;99.90;;;;;;5077359;28;20258;-76
2021/03/04 09:35:57;;;;;;;62.03;23.02;;;9.20;99.90;;;;;;5077022;28;20234;-76
2021/03/04 09:38:25;;;;;;;66.47;24.48;;;9.10;99.90;;;;;;5095608;28;20162;-76
2021/03/04 09:40:52;;;;;;;79.55;27.67;;;9.10;99.90;;;;;;5077264;28;20783;-76
2021/03/04 09:43:19;;;;;;;78.70;28.02;;;9.00;99.90;;;;;;5095302;28;20158;-76
2021/03/04 09:45:51;;;;;;;80.70;28.20;;;8.90;99.90;;;;;;5095285;28;20203;-76
2021/03/04 09:48:29;;;;;;;88.18;28.45;;;9.00;99.90;;;;;;5087511;28;20185;-77
2021/03/04 09:50:55;;;;;;;81.50;27.50;;;9.10;99.90;;;;;;5087236;28;20212;-76
2021/03/04 09:53:21;;;;;;;77.38;26.77;;;9.10;99.90;;;;;;5094073;28;20208;-77
2021/03/04 09:55:47;;;;;;;67.63;24.58;;;9.00;99.90;;;;;;5076419;28;20295;-75
2021/03/04 09:58:14;;;;;;;66.53;25.02;;;8.80;99.90;;;;;;5076041;28;20235;-75
2021/03/04 10:00:40;;;;;;;59.15;22.67;;;8.70;99.90;;;;;;5094219;28;20162;-76
2021/03/04 10:03:12;;;;;;;54.38;20.95;;;8.70;99.90;;;;;;5094229;28;20270;-75
2021/03/04 10:05:50;;;;;;;50.92;20.20;;;8.70;99.90;;;;;;5093845;28;20174;-76
2021/03/04 10:08:19;;;;;;;48.33;20.38;;;8.80;99.90;;;;;;5094493;28;20162;-76
2021/03/04 10:10:49;;;;;;;51.10;20.33;;;8.70;99.90;;;;;;5076046;28;20534;-76
2021/03/04 10:13:14;;;;;;;48.33;17.80;;;8.60;99.90;;;;;;5076442;28;20257;-77
2021/03/04 10:15:42;;;;;;;51.63;19.83;;;8.80;99.90;;;;;;5094491;28;20293;-78
2021/03/04 10:18:15;;;;;;;61.25;20.10;;;9.00;99.90;;;;;;5093421;28;20178;-77
2021/03/04 10:20:46;;;;;;;51.17;19.40;;;9.20;99.90;;;;;;5093872;28;20162;-79
2021/03/04 10:23:16;;;;;;;49.53;18.83;;;9.40;99.90;;;;;;5073984;28;20256;-77
2021/03/04 10:25:42;;;;;;;45.05;18.50;;;9.60;99.90;;;;;;5055157;28;20198;-77
2021/03/04 10:28:08;;;;;;;45.42;18.65;;;9.70;99.90;;;;;;5055325;28;20224;-76
2021/03/04 10:30:35;;;;;;;45.38;18.38;;;9.80;99.90;;;;;;5081480;28;20178;-77
2021/03/04 10:33:11;;;;;;;42.25;17.10;;;9.90;99.90;;;;;;5094241;28;20158;-76
2021/03/04 10:35:37;;;;;;;41.95;16.65;;;9.80;99.90;;;;;;5095317;28;20201;-77
2021/03/04 10:38:03;;;;;;;43.42;16.95;;;9.80;99.90;;;;;;5114625;28;20154;-76
2021/03/04 10:40:29;;;;;;;38.05;15.45;;;9.90;99.90;;;;;;5114169;28;20157;-77
2021/03/04 10:42:55;;;;;;;37.95;15.90;;;9.90;99.90;;;;;;5113986;28;20369;-77
2021/03/04 10:45:21;;;;;;;31.67;14.57;;;9.90;99.90;;;;;;5096406;28;20177;-76
2021/03/04 10:47:47;;;;;;;31.08;14.20;;;9.90;99.90;;;;;;5105269;28;20158;-76
2021/03/04 10:50:16;;;;;;;30.63;15.18;;;9.90;99.90;;;;;;5075857;28;20735;-77
2021/03/04 10:52:42;;;;;;;32.10;14.05;;;9.80;99.90;;;;;;5093626;28;20618;-76
2021/03/04 10:55:09;;;;;;;30.33;13.88;;;9.90;99.90;;;;;;5093920;28;20281;-75
2021/03/04 10:57:38;;;;;;;29.65;14.52;;;9.90;99.90;;;;;;5092762;28;20162;-75
2021/03/04 11:00:06;;;;;;;32.38;14.27;;;9.90;99.90;;;;;;5092049;28;20523;-75
2021/03/04 11:02:32;;;;;;;29.95;13.23;;;9.90;99.90;;;;;;5075941;28;20173;-75
2021/03/04 11:04:57;;;;;;;29.85;13.50;;;9.80;99.90;;;;;;5085726;28;20191;-75
2021/03/04 11:07:23;;;;;;;29.45;12.15;;;9.80;99.90;;;;;;5093661;28;20166;-76
2021/03/04 11:09:51;;;;;;;21.88;11.57;;;9.80;99.90;;;;;;5093752;28;20166;-77
2021/03/04 11:12:18;;;;;;;22.55;11.18;;;9.70;99.90;;;;;;5093659;28;20257;-75
2021/03/04 11:14:43;;;;;;;23.67;11.05;;;9.60;99.90;;;;;;5092432;28;20198;-75
2021/03/04 11:17:09;;;;;;;28.02;12.38;;;9.60;99.90;;;;;;5075541;28;20219;-75
2021/03/04 11:19:35;;;;;;;26.83;12.52;;;9.80;99.90;;;;;;5093591;28;20165;-75
2021/03/04 11:22:00;;;;;;;28.33;11.50;;;9.90;99.90;;;;;;5089716;28;20614;-76
2021/03/04 11:24:26;;;;;;;27.20;12.32;;;9.90;99.90;;;;;;5091209;28;20174;-75
2021/03/04 11:26:52;;;;;;;23.30;11.57;;;9.90;99.90;;;;;;5074665;28;20162;-75
2021/03/04 11:29:18;;;;;;;30.35;13.05;;;9.90;99.90;;;;;;5085293;28;20186;-77
2021/03/04 11:31:44;;;;;;;27.13;12.45;;;9.90;99.90;;;;;;5091885;28;20624;-77
2021/03/04 11:34:09;;;;;;;26.13;12.50;;;9.90;99.90;;;;;;5093278;28;20718;-78
2021/03/04 11:36:35;;;;;;;26.98;12.75;;;9.90;99.90;;;;;;5095677;28;20170;-78
2021/03/04 11:39:02;;;;;;;28.02;13.68;;;9.60;99.90;;;;;;5099655;28;20158;-75
2021/03/04 11:41:29;;;;;;;24.90;12.70;;;9.60;99.90;;;;;;5065096;28;20173;-75
2021/03/04 11:43:55;;;;;;;26.77;12.07;;;9.50;99.90;;;;;;5099752;28;20220;-74
2021/03/04 11:46:21;;;;;;;26.30;13.38;;;9.60;99.90;;;;;;5099360;28;20193;-75
2021/03/04 11:48:47;;;;;;;35.42;15.52;;;9.70;99.90;;;;;;5098997;28;20161;-75
2021/03/04 11:51:14;;;;;;;31.75;14.40;;;9.80;99.90;;;;;;5099196;28;20173;-75
2021/03/04 11:53:40;;;;;;;27.33;14.23;;;9.90;99.90;;;;;;5099239;28;20166;-75
2021/03/04 11:56:06;;;;;;;34.63;15.00;;;9.70;99.90;;;;;;5099589;28;20291;-74
2021/03/04 11:58:31;;;;;;;29.60;14.35;;;9.70;99.90;;;;;;5099984;28;20675;-75
2021/03/04 12:00:57;;;;;;;27.58;14.10;;;9.90;99.90;;;;;;5087371;28;20254;-74
2021/03/04 12:03:24;;;;;;;27.52;14.70;;;9.90;99.90;;;;;;5099747;28;20551;-76
2021/03/04 12:05:50;;;;;;;30.33;15.57;;;10.10;99.90;;;;;;5098373;28;20170;-74
2021/03/04 12:08:16;;;;;;;32.22;15.55;;;10.10;99.90;;;;;;5099006;28;20231;-75
2021/03/04 12:10:42;;;;;;;29.70;14.52;;;10.10;99.90;;;;;;5099906;28;20178;-75
2021/03/04 12:13:09;;;;;;;30.00;14.77;;;10.10;99.90;;;;;;5099371;28;20172;-75
2021/03/04 12:15:36;;;;;;;30.70;14.68;;;10.20;99.90;;;;;;5081410;28;20254;-75
2021/03/04 12:18:01;;;;;;;31.00;14.48;;;10.30;99.90;;;;;;5099671;28;20166;-75
2021/03/04 12:20:27;;;;;;;26.05;14.20;;;10.60;99.90;;;;;;5076279;28;20175;-75
2021/03/04 12:22:53;;;;;;;31.98;15.55;;;10.50;99.90;;;;;;5081236;28;20173;-75
2021/03/04 12:25:19;;;;;;;31.73;15.50;;;10.20;99.90;;;;;;5081409;28;20185;-75
2021/03/04 12:27:44;;;;;;;33.53;16.08;;;10.10;99.90;;;;;;5082459;28;20260;-75
2021/03/04 12:30:11;;;;;;;42.08;14.82;;;10.10;99.90;;;;;;5099430;28;20273;-75
2021/03/04 12:32:37;;;;;;;44.55;17.45;;;10.10;99.90;;;;;;5099518;28;20189;-75